Flight Track Log - Related Links

Times and Time Zones

All times are in EDT time to prevent confusion due to time zone crossing. See the N2164L flight status page for this flight to view local times or setup timezone preferences in your user account.

Time Position Orientation Groundspeed Altitude Reporting Facility
EDT Latitude Longitude Course Direction KTS MPH feet Rate Location/Type
Fri 04:10:18 PM 39.1428 -108.2925 41° Northeast 165 190 11,400  Level Denver Center
Fri 04:11:20 PM 39.1825 -108.2472 41° Northeast 191 220 11,500 145 Climbing Denver Center
Fri 04:12:22 PM 39.2217 -108.1864 50° Northeast 208 239 11,700 581 Climbing Denver Center
Fri 04:13:24 PM 39.2511 -108.1328 55° Northeast 185 213 12,700 871 Climbing Denver Center
Fri 04:14:26 PM 39.2811 -108.0747 56° Northeast 180 207 13,500 387 Climbing Denver Center
Fri 04:15:28 PM 39.3117 -108.0156 56° Northeast 196 226 13,500  Level Denver Center
Fri 04:16:31 PM 39.3439 -107.9561 55° Northeast 191 220 13,500 -48 Level Denver Center
Fri 04:17:33 PM 39.3742 -107.8972 56° Northeast 197 227 13,400  Descending Denver Center
Fri 04:18:35 PM 39.4050 -107.8400 55° Northeast 189 217 13,500 48 Climbing Denver Center
Fri 04:19:37 PM 39.4347 -107.7819 56° Northeast 196 226 13,500  Level Denver Center
Fri 04:20:39 PM 39.4686 -107.7169 56° Northeast 196 226 13,500  Level Denver Center
Fri 04:21:41 PM 39.4969 -107.6661 54° Northeast 188 216 13,500  Level Denver Center
Fri 04:22:43 PM 39.5292 -107.6025 57° Northeast 189 217 13,500  Level Denver Center
Fri 04:23:45 PM 39.5586 -107.5469 55° Northeast 194 223 13,500  Level Denver Center
Fri 04:24:47 PM 39.5908 -107.4839 56° Northeast 190 219 13,500  Level Denver Center
Fri 04:26:02 PM 39.6231 -107.4214 56° Northeast 188 216 13,500 -44 Level Denver Center
Fri 04:27:04 PM 39.6569 -107.3542 57° Northeast 195 224 13,400 -435 Descending Denver Center
Fri 04:28:06 PM 39.6439 -107.2933 106° East 205 236 12,600 -353 Descending Denver Center
Fri 04:29:20 PM 39.5861 -107.2881 176° South 189 217 12,600 44 Level Denver Center
Fri 04:30:22 PM 39.5394 -107.2956 187° South 166 191 12,700 -435 Climbing Denver Center
Fri 04:31:24 PM 39.5333 -107.3583 263° West 161 185 11,700 -960 Descending Denver Center
Fri 04:32:27 PM 39.5325 -107.4128 269° West 159 183 10,700 -1,008 Descending Denver Center
Fri 04:33:29 PM 39.5314 -107.4744 269° West 154 177 9,600 -968 Descending Denver Center
Fri 04:34:31 PM 39.5306 -107.5314 269° West 156 180 8,700 -919 Descending Denver Center
Fri 04:35:33 PM 39.5289 -107.5861 268° West 155 178 7,700 -919 Descending Denver Center
Fri 04:36:35 PM 39.5281 -107.6406 269° West 153 176 6,800 -774 Descending Denver Center
Fri 04:37:37 PM 39.5269 -107.6933 268° West 151 174 6,100 4,210 Descending Denver Center
Fri 04:38:39 PM 39.5269 -107.7439 270° West 137 158 15,500 581 Climbing Denver Center
Fri 04:39:41 PM 39.5425 -107.7853 296° West 144 166 7,300 -3,339 Descending Denver Center
Fri 04:40:43 PM 39.5686 -107.7567 40° Northeast 145 167 8,600 1,210 Climbing Denver Center
Fri 04:41:45 PM 39.5539 -107.7153 115° Southeast 146 168 9,800 1,306 Climbing Denver Center
Fri 04:42:47 PM 39.5358 -107.6606 113° Southeast 163 188 11,300 1,296 Climbing Denver Center
Fri 04:43:50 PM 39.5553 -107.6014 67° East 160 184 12,500 1,152 Climbing Denver Center
Fri 04:44:52 PM 39.5653 -107.5439 77° East 173 199 13,700 435 Climbing Denver Center
Fri 04:45:54 PM 39.5786 -107.4639 78° East 204 235 13,400 -145 Descending Denver Center
Fri 04:46:56 PM 39.5964 -107.3925 72° East 216 249 13,400  Level Denver Center
Fri 04:47:58 PM 39.6111 -107.3250 74° East 206 237 13,400  Level Denver Center
Fri 04:49:00 PM 39.6294 -107.2428 74° East 211 243 13,400  Level Denver Center
Fri 04:50:02 PM 39.6447 -107.1747 74° East 203 234 13,400  Level Denver Center
Fri 04:51:04 PM 39.6600 -107.1075 74° East 195 224 13,400  Level Denver Center
Fri 04:52:06 PM 39.6756 -107.0389 74° East 196 226 13,400  Level Denver Center
Fri 04:53:08 PM 39.6919 -106.9656 74° East 204 235 13,400  Level Denver Center
Fri 04:54:11 PM 39.7069 -106.9003 73° East 192 221 13,400 48 Level Denver Center
Fri 04:55:13 PM 39.7214 -106.8339 74° East 191 220 13,500 49 Climbing Denver Center
Fri 04:56:14 PM 39.7394 -106.7542 74° East 190 219 13,500  Level Denver Center
Fri 04:57:28 PM 39.7544 -106.6872 74° East 188 216 13,500 44 Level Denver Center
Fri 04:58:31 PM 39.7719 -106.6067 74° East 193 222 13,600 -288 Climbing Denver Center
Fri 04:59:33 PM 39.7517 -106.5433 113° Southeast 203 234 12,900 -480 Descending Denver Center
Fri 05:00:36 PM 39.7036 -106.5636 198° South 189 217 12,600 -339 Descending Denver Center
Fri 05:01:37 PM 39.6883 -106.6069 245° Southwest 180 207 12,200 -1,065 Descending Denver Center
Fri 05:02:40 PM 39.6744 -106.6897 258° West 170 196 10,400 -1,392 Descending Denver Center
Fri 05:03:42 PM 39.6669 -106.7486 261° West 168 193 9,300 -968 Descending Denver Center
Fri 05:04:44 PM 39.6589 -106.8028 259° West 159 183 8,400 -871 Descending Denver Center
Fri 05:05:46 PM 39.6494 -106.8525 256° West 149 171 7,500 -823 Descending Denver Center
Fri 05:06:48 PM 39.6439 -106.8994 261° West 141 162 6,700 -290 Descending Denver Center
Fri 05:07:50 PM 39.6428 -106.9428 268° West 120 138 6,900 1,016 Climbing Denver Center
Fri 05:08:52 PM 39.6806 -106.9636 337° Northwest 145 167 8,800 1,500 Climbing Denver Center
Fri 05:09:54 PM 39.6961 -106.9203 65° Northeast 155 178 10,000 1,403 Climbing Denver Center
Fri 05:10:56 PM 39.6956 -106.8614 91° East 157 181 11,700 1,588 Climbing Denver Center
Fri 05:12:10 PM 39.6958 -106.8042 90° East 157 181 13,600 1,533 Climbing Denver Center
Fri 05:13:13 PM 39.6958 -106.7306 90° East 166 191 15,200 1,296 Climbing Denver Center
Fri 05:14:15 PM 39.6939 -106.6692 92° East 169 194 16,300 968 Climbing Denver Center
Fri 05:15:17 PM 39.6900 -106.6044 94° East 177 204 17,200 581 Climbing Denver Center
Fri 05:16:19 PM 39.6839 -106.5158 95° East 205 236 17,500 194 Climbing Denver Center
Fri 05:17:21 PM 39.6814 -106.4397 92° East 209 241 17,600 44 Climbing Denver Center
Fri 05:18:35 PM 39.6767 -106.3656 95° East 206 237 17,600  Level Denver Center
Fri 05:19:38 PM 39.6714 -106.2753 94° East 209 241 17,600 -48 Level Denver Center
Fri 05:20:40 PM 39.6658 -106.1986 95° East 212 244 17,500 -97 Descending Denver Center
Fri 05:21:42 PM 39.6597 -106.1164 95° East 222 255 17,400 -48 Descending Denver Center
Fri 05:22:44 PM 39.6531 -106.0244 95° East 217 250 17,400  Level Denver Center
Fri 05:23:46 PM 39.6483 -105.9469 95° East 216 249 17,400  Level Denver Center
Fri 05:24:48 PM 39.6444 -105.8714 94° East 214 246 17,400  Level Denver Center
Fri 05:25:50 PM 39.6392 -105.7931 95° East 211 243 17,400  Level Denver Center
Fri 05:26:52 PM 39.6333 -105.7128 95° East 208 239 17,400  Level Denver Center
Fri 05:27:54 PM 39.6286 -105.6375 95° East 210 242 17,400  Level Denver Center
Fri 05:28:56 PM 39.6286 -105.5544 90° East 215 247 17,400  Level Denver Center
Fri 05:29:58 PM 39.6364 -105.4794 82° East 212 244 17,400 -97 Level Denver Center
Fri 05:31:00 PM 39.6425 -105.4006 84° East 217 250 17,200 -774 Descending Denver Center
Fri 05:32:02 PM 39.6494 -105.3083 84° East 241 277 15,800 -1,065 Descending Denver Center
Fri 05:33:04 PM 39.6408 -105.2228 97° East 238 274 15,000 -823 Descending Denver Center
Fri 05:34:06 PM 39.6056 -105.1544 124° Southeast 221 254 14,100 -1,392 Descending Denver Center
Fri 05:35:09 PM 39.5681 -105.1036 134° Southeast 203 234 12,100 -1,872 Descending Denver Center
Fri 05:36:11 PM 39.5139 -105.0903 169° South 185 213 10,200 -1,597 Descending Denver Center
Fri 05:37:13 PM 39.4833 -105.0561 139° Southeast 168 193 8,800 -1,016 Descending Denver Center
Fri 05:38:15 PM 39.5150 -105.0161 44° Northeast 165 190 8,100 -484 Descending Denver Center
Fri 05:39:17 PM 39.5611 -105.0056 10° North 171 197 7,800 -387 Descending Denver Center
Fri 05:40:19 PM 39.6125 -104.9808 20° North 181 208 7,300 -339 Descending Denver Center
Fri 05:41:21 PM 39.6583 -104.9547 24° Northeast 180 207 7,100 -97 Descending Denver Center
Fri 05:42:23 PM 39.6778 -104.9092 61° Northeast 167 192 7,100 48 Level Denver Center
Fri 05:43:25 PM 39.6567 -104.8628 121° Southeast 157 181 7,200 -387 Climbing Denver Center
Fri 05:44:27 PM 39.6167 -104.8522 169° South 152 175 6,300 -677 Descending Denver Center
Fri 05:45:29 PM 39.5747 -104.8503 178° South 135 155 5,800 -484 Descending Denver Center

Login

Don't have an account? Register now (free) for customized features, flight alerts, and more!